Time;durP1;ratioP1;P1;durP2;ratioP2;P2;SDS_P1;SDS_P2;PMS_P1;PMS_P2;Temp;Humidity;BMP_temperature;BMP_pressure;BME280_temperature;BME280_humidity;BME280_pressure;Samples;Min_cycle;Max_cycle;Signal;HPM_P1;HPM_P2
2021/07/30 00:01:37;;;;;;;8.52;2.35;;;;;;;12.60;84.74;100718.59;5079308;28;20122;-83
2021/07/30 00:04:04;;;;;;;10.85;2.90;;;;;;;12.63;84.20;100709.53;5090682;28;20028;-84
2021/07/30 00:06:29;;;;;;;14.10;2.53;;;;;;;12.58;84.64;100715.28;5080414;28;20036;-82
2021/07/30 00:08:55;;;;;;;10.45;2.45;;;;;;;12.68;84.14;100723.03;5080999;28;20864;-83
2021/07/30 00:11:20;;;;;;;12.77;2.67;;;;;;;12.63;85.03;100717.44;5080938;28;20055;-83
2021/07/30 00:13:46;;;;;;;8.07;2.78;;;;;;;12.62;84.46;100724.50;5076952;28;20400;-82
2021/07/30 00:16:11;;;;;;;9.75;2.58;;;;;;;12.62;84.94;100713.97;5056746;28;20063;-82
2021/07/30 00:18:37;;;;;;;8.65;2.40;;;;;;;12.63;84.44;100722.69;5080356;28;20028;-84
2021/07/30 00:21:04;;;;;;;9.38;2.67;;;;;;;12.55;84.40;100710.34;5087008;28;20032;-83
2021/07/30 00:23:29;;;;;;;4.97;2.10;;;;;;;12.49;84.84;100715.41;5063263;28;20032;-81
2021/07/30 00:26:00;;;;;;;9.98;2.30;;;;;;;12.58;84.43;100719.72;5062732;28;20077;-83
2021/07/30 00:28:25;;;;;;;12.10;2.47;;;;;;;12.66;84.47;100720.56;5066781;28;20061;-82
2021/07/30 00:30:51;;;;;;;10.57;3.17;;;;;;;12.66;84.74;100719.75;5079333;28;20028;-81
2021/07/30 00:33:27;;;;;;;8.02;2.38;;;;;;;12.61;84.25;100714.94;5090299;28;20039;-84
2021/07/30 00:35:53;;;;;;;8.25;2.55;;;;;;;12.59;84.23;100713.47;5077266;28;20562;-81
2021/07/30 00:38:18;;;;;;;11.35;2.58;;;;;;;12.58;84.93;100720.56;5092481;28;20477;-82
2021/07/30 00:40:43;;;;;;;13.57;2.50;;;;;;;12.49;84.47;100720.66;5062796;28;20142;-81
2021/07/30 00:43:11;;;;;;;11.27;2.60;;;;;;;12.42;85.26;100708.16;5061825;28;20110;-84
2021/07/30 00:45:39;;;;;;;6.88;2.33;;;;;;;12.39;85.92;100723.44;5077978;28;20024;-81
2021/07/30 00:48:04;;;;;;;6.65;2.60;;;;;;;12.30;85.50;100698.06;5063869;28;20074;-84
2021/07/30 00:50:30;;;;;;;12.93;2.72;;;;;;;12.26;85.63;100701.03;5075090;28;20405;-81
2021/07/30 00:52:56;;;;;;;9.05;2.45;;;;;;;12.34;86.25;100713.41;5095607;28;20040;-82
2021/07/30 00:55:24;;;;;;;9.05;2.67;;;;;;;12.29;86.04;100714.84;5061291;28;20032;-80
2021/07/30 00:57:52;;;;;;;9.23;2.50;;;;;;;12.15;86.21;100706.59;5055248;28;20081;-82
2021/07/30 01:00:21;;;;;;;13.23;2.60;;;;;;;12.07;87.41;100712.63;5073707;28;20536;-83
2021/07/30 01:02:48;;;;;;;6.18;2.28;;;;;;;12.10;87.35;100714.13;5076366;28;20048;-83
2021/07/30 01:05:14;;;;;;;7.22;2.45;;;;;;;11.98;87.33;100700.44;5057703;28;20035;-83
2021/07/30 01:07:40;;;;;;;11.75;3.15;;;;;;;11.90;87.76;100697.72;5076636;28;20039;-83
2021/07/30 01:10:06;;;;;;;6.55;2.85;;;;;;;11.86;88.08;100709.50;5062596;28;20032;-83
2021/07/30 01:12:32;;;;;;;7.93;3.28;;;;;;;11.68;88.34;100693.81;5052437;28;20032;-84
2021/07/30 01:14:57;;;;;;;10.52;3.13;;;;;;;11.76;88.73;100714.88;5063133;28;20405;-85
2021/07/30 01:17:26;;;;;;;10.25;2.78;;;;;;;11.74;88.49;100708.97;5062490;28;20409;-84
2021/07/30 01:19:53;;;;;;;10.00;2.72;;;;;;;11.68;89.25;100713.03;5067641;28;20028;-83
2021/07/30 01:22:23;;;;;;;8.63;2.88;;;;;;;11.59;89.84;100692.94;5104292;28;20035;-84
2021/07/30 01:24:50;;;;;;;8.77;2.83;;;;;;;11.65;89.60;100705.44;5076868;28;20058;-84
2021/07/30 01:27:16;;;;;;;8.95;3.15;;;;;;;11.59;89.90;100707.88;5090520;28;20489;-81
2021/07/30 01:29:41;;;;;;;10.95;3.05;;;;;;;11.64;89.94;100708.22;5077700;28;20043;-85
2021/07/30 01:32:07;;;;;;;10.23;2.97;;;;;;;11.57;90.24;100713.28;5076249;28;20093;-84
2021/07/30 01:34:33;;;;;;;8.57;3.05;;;;;;;11.43;90.27;100684.94;5058516;28;20073;-81
2021/07/30 01:36:58;;;;;;;7.28;2.88;;;;;;;11.43;90.84;100695.44;5078821;28;20123;-80
2021/07/30 01:39:24;;;;;;;8.98;2.88;;;;;;;11.53;90.37;100698.81;5073947;28;20062;-84
2021/07/30 01:41:49;;;;;;;11.02;3.10;;;;;;;11.45;90.73;100698.72;5095383;28;20845;-85
2021/07/30 01:44:15;;;;;;;11.05;3.22;;;;;;;11.44;91.14;100700.53;5055467;28;20023;-84
2021/07/30 01:46:40;;;;;;;11.02;3.10;;;;;;;11.54;90.75;100702.25;5086386;28;20081;-84
2021/07/30 01:49:06;;;;;;;7.82;2.80;;;;;;;11.48;90.71;100701.06;5076763;28;20568;-85
2021/07/30 01:51:31;;;;;;;9.27;3.17;;;;;;;11.38;90.18;100688.03;5071907;28;20054;-86
2021/07/30 01:53:57;;;;;;;16.00;3.10;;;;;;;11.43;90.46;100705.94;5112909;28;20032;-87
2021/07/30 01:56:23;;;;;;;10.13;2.85;;;;;;;11.41;91.03;100700.03;5057261;28;20175;-83
2021/07/30 01:58:48;;;;;;;10.88;3.00;;;;;;;11.35;90.59;100685.69;5072600;28;20473;-85
2021/07/30 02:01:14;;;;;;;8.55;2.92;;;;;;;11.38;90.65;100695.09;5072250;28;20042;-85
2021/07/30 02:03:39;;;;;;;10.10;3.13;;;;;;;11.39;90.84;100694.91;5062332;28;20028;-86
2021/07/30 02:06:08;;;;;;;11.07;3.30;;;;;;;11.44;90.32;100683.97;5092559;28;20031;-85
2021/07/30 02:08:35;;;;;;;8.18;2.70;;;;;;;11.30;90.83;100680.06;5075245;28;20035;-85
2021/07/30 02:11:06;;;;;;;13.07;3.40;;;;;;;11.43;90.55;100693.66;5057091;28;20020;-85
2021/07/30 02:16:16;;;;;;;9.95;2.90;;;;;;;11.50;90.13;100689.41;5090636;28;20058;-82
2021/07/30 02:18:41;;;;;;;9.13;3.15;;;;;;;11.58;89.32;100691.28;5061034;28;20047;-85
2021/07/30 02:21:07;;;;;;;11.88;3.03;;;;;;;11.39;89.00;100671.28;5059693;28;20023;-80
2021/07/30 02:23:33;;;;;;;7.38;3.15;;;;;;;11.60;88.78;100693.75;5076854;28;20020;-81
2021/07/30 02:25:58;;;;;;;11.45;3.00;;;;;;;11.58;88.68;100696.53;5091644;28;20949;-80
2021/07/30 02:28:24;;;;;;;7.03;2.80;;;;;;;11.45;89.72;100689.06;5074982;28;20046;-81
2021/07/30 02:30:49;;;;;;;11.68;3.53;;;;;;;11.47;89.38;100704.66;5083087;28;20411;-80
2021/07/30 02:33:14;;;;;;;9.95;3.38;;;;;;;11.49;89.05;100693.03;5081461;28;20541;-82
2021/07/30 02:35:40;;;;;;;12.43;3.10;;;;;;;11.48;88.90;100687.94;5078991;28;20035;-80
2021/07/30 02:38:06;;;;;;;8.63;3.15;;;;;;;11.49;89.54;100692.22;5079107;28;20028;-83
2021/07/30 02:40:31;;;;;;;17.05;3.45;;;;;;;11.37;88.96;100689.00;5101474;28;20051;-77
2021/07/30 02:42:57;;;;;;;9.40;3.40;;;;;;;11.37;89.02;100690.81;5083947;28;20388;-82
2021/07/30 02:45:22;;;;;;;9.15;3.20;;;;;;;11.40;89.05;100693.94;5073623;28;20039;-80
2021/07/30 02:47:47;;;;;;;12.50;3.65;;;;;;;11.29;88.92;100683.69;5061146;28;20038;-81
2021/07/30 02:50:13;;;;;;;9.57;3.40;;;;;;;11.31;88.89;100689.63;5060276;28;20063;-82
2021/07/30 02:52:38;;;;;;;10.25;3.28;;;;;;;11.36;88.33;100684.75;5092610;28;20028;-81
2021/07/30 02:55:05;;;;;;;11.00;3.45;;;;;;;11.35;88.92;100687.50;5094210;28;20039;-82
2021/07/30 02:57:30;;;;;;;9.50;3.70;;;;;;;11.33;88.58;100690.28;5070646;28;20024;-82
2021/07/30 02:59:56;;;;;;;9.90;3.40;;;;;;;11.36;88.89;100689.16;5076487;28;20043;-81
2021/07/30 03:02:21;;;;;;;9.38;3.45;;;;;;;11.67;87.21;100682.47;5060009;28;20027;-81
2021/07/30 03:04:47;;;;;;;8.70;3.30;;;;;;;11.84;86.42;100688.63;5074622;28;20401;-81
2021/07/30 03:07:12;;;;;;;11.27;3.70;;;;;;;11.78;86.99;100670.88;5076492;28;20053;-80
2021/07/30 03:09:38;;;;;;;11.75;3.33;;;;;;;11.81;86.72;100688.13;5061592;28;20036;-81
2021/07/30 03:12:04;;;;;;;15.98;3.50;;;;;;;11.61;87.24;100696.22;5061947;28;20381;-83
2021/07/30 03:14:29;;;;;;;11.18;3.78;;;;;;;11.46;88.72;100698.59;5061931;28;20031;-81
2021/07/30 03:16:54;;;;;;;10.80;3.47;;;;;;;11.44;89.35;100692.66;5078883;28;20114;-81
2021/07/30 03:19:20;;;;;;;12.45;3.60;;;;;;;11.35;89.85;100696.22;5100625;28;20032;-79
2021/07/30 03:21:45;;;;;;;12.45;3.53;;;;;;;11.34;89.83;100689.31;5063636;28;20024;-80
2021/07/30 03:24:11;;;;;;;12.07;4.38;;;;;;;11.29;89.73;100684.50;5076257;28;20535;-81
2021/07/30 03:26:36;;;;;;;13.57;3.58;;;;;;;11.29;89.80;100688.94;5088124;28;20099;-81
2021/07/30 03:29:04;;;;;;;11.32;3.92;;;;;;;11.23;89.37;100692.19;5094001;28;20370;-80
2021/07/30 03:31:30;;;;;;;10.43;3.70;;;;;;;11.26;90.03;100689.25;5083324;28;20057;-81
2021/07/30 03:33:55;;;;;;;6.47;3.60;;;;;;;11.14;90.08;100688.66;5080585;28;20031;-82
2021/07/30 03:36:21;;;;;;;12.55;3.97;;;;;;;11.18;90.45;100691.81;5079023;28;20036;-80
2021/07/30 03:38:46;;;;;;;8.18;3.88;;;;;;;11.10;90.95;100695.19;5087025;28;20174;-81
2021/07/30 03:41:12;;;;;;;11.95;3.70;;;;;;;11.02;91.63;100688.06;5063559;28;20135;-80
2021/07/30 03:43:37;;;;;;;7.65;3.58;;;;;;;11.10;91.17;100701.25;5064073;28;20042;-80
2021/07/30 03:46:03;;;;;;;10.48;3.70;;;;;;;11.12;90.92;100698.50;5082312;28;20023;-81
2021/07/30 03:48:28;;;;;;;8.93;3.78;;;;;;;11.09;90.80;100689.13;5075260;28;20081;-81
2021/07/30 03:50:54;;;;;;;9.75;3.65;;;;;;;11.11;90.36;100699.44;5078907;28;20050;-80
2021/07/30 03:53:19;;;;;;;9.55;4.10;;;;;;;11.13;90.98;100697.50;5107574;28;20028;-82
2021/07/30 03:55:45;;;;;;;10.82;4.18;;;;;;;11.24;90.55;100697.25;5067873;28;20065;-80
2021/07/30 03:58:10;;;;;;;13.30;4.55;;;;;;;11.62;87.17;100683.91;5062401;28;20103;-79
2021/07/30 04:00:39;;;;;;;11.10;3.95;;;;;;;11.78;87.69;100684.00;5088212;28;20042;-81
2021/07/30 04:03:04;;;;;;;10.35;4.10;;;;;;;11.68;88.37;100686.75;5077547;28;20054;-80
2021/07/30 04:05:30;;;;;;;13.70;4.00;;;;;;;11.64;88.06;100689.81;5089189;28;20494;-81
2021/07/30 04:07:56;;;;;;;9.32;3.90;;;;;;;11.79;88.62;100693.56;5054090;28;20042;-81
2021/07/30 04:10:22;;;;;;;8.95;4.00;;;;;;;11.67;89.30;100694.78;5051225;28;20536;-81
2021/07/30 04:12:47;;;;;;;9.73;3.85;;;;;;;11.58;89.60;100693.09;5062410;28;20067;-79
2021/07/30 04:15:13;;;;;;;12.07;3.85;;;;;;;11.55;89.86;100686.34;5075764;28;20036;-82
2021/07/30 04:17:38;;;;;;;11.23;4.43;;;;;;;11.57;90.16;100692.28;5077061;28;20505;-80
2021/07/30 04:20:04;;;;;;;12.57;4.07;;;;;;;11.56;90.42;100695.03;5081361;28;20063;-80
2021/07/30 04:22:30;;;;;;;13.73;4.38;;;;;;;11.50;91.24;100697.28;5062883;28;20623;-80
2021/07/30 04:24:55;;;;;;;9.88;4.63;;;;;;;11.61;90.42;100690.97;5060779;28;20043;-80
2021/07/30 04:27:21;;;;;;;8.98;3.75;;;;;;;11.73;90.48;100702.03;5076302;28;20035;-80
2021/07/30 04:29:46;;;;;;;7.25;4.28;;;;;;;11.78;90.00;100688.44;5075834;28;20570;-80
2021/07/30 04:32:12;;;;;;;7.68;3.70;;;;;;;11.92;89.50;100687.88;5059114;28;20035;-80
2021/07/30 04:34:39;;;;;;;11.85;4.00;;;;;;;11.97;89.21;100690.06;5076734;28;20051;-85
2021/07/30 04:37:05;;;;;;;11.55;4.32;;;;;;;11.99;89.90;100696.81;5078994;28;20062;-83
2021/07/30 04:39:31;;;;;;;12.27;4.60;;;;;;;11.94;89.96;100685.94;5079436;28;20027;-80
2021/07/30 04:41:56;;;;;;;6.95;3.92;;;;;;;12.04;90.00;100701.59;5079532;28;20557;-81
2021/07/30 04:44:22;;;;;;;16.95;4.80;;;;;;;12.17;89.80;100695.91;5076709;28;20052;-82
2021/07/30 04:46:48;;;;;;;11.20;4.97;;;;;;;12.36;88.51;100703.53;5079656;28;20035;-83
2021/07/30 04:49:13;;;;;;;8.82;4.35;;;;;;;12.34;89.18;100695.00;5052336;28;20034;-82
2021/07/30 04:51:39;;;;;;;7.93;4.60;;;;;;;12.44;88.53;100700.94;5078672;28;20027;-81
2021/07/30 04:54:05;;;;;;;12.20;4.63;;;;;;;12.47;89.03;100699.81;5078667;28;20031;-79
2021/07/30 04:56:30;;;;;;;14.43;4.90;;;;;;;12.57;86.66;100687.31;5077850;28;20088;-81
2021/07/30 04:58:56;;;;;;;14.82;4.65;;;;;;;12.66;87.96;100702.16;5059170;28;20035;-79
2021/07/30 05:01:21;;;;;;;8.95;4.38;;;;;;;12.69;88.19;100701.00;5051522;28;20037;-81
2021/07/30 05:03:47;;;;;;;13.20;5.05;;;;;;;12.81;87.49;100693.63;5079101;28;20044;-79
2021/07/30 05:06:18;;;;;;;13.43;5.22;;;;;;;12.97;85.17;100696.25;5079471;28;20569;-81
2021/07/30 05:08:44;;;;;;;8.95;4.30;;;;;;;13.07;85.66;100703.19;5079117;28;20110;-80
2021/07/30 05:11:11;;;;;;;13.40;4.93;;;;;;;13.17;85.81;100695.97;5092683;28;20114;-80
2021/07/30 05:13:41;;;;;;;18.55;5.32;;;;;;;13.17;85.87;100695.97;5076764;28;20039;-78
2021/07/30 05:16:12;;;;;;;9.60;4.85;;;;;;;13.17;86.78;100678.34;5071363;28;20024;-80
2021/07/30 05:18:37;;;;;;;11.43;5.47;;;;;;;13.30;87.64;100696.31;5081307;28;20059;-83
2021/07/30 05:21:07;;;;;;;16.60;5.00;;;;;;;13.25;87.38;100680.97;5077784;28;20493;-82
2021/07/30 05:23:33;;;;;;;9.30;4.95;;;;;;;13.39;87.39;100697.13;5077708;28;20130;-81
2021/07/30 05:26:00;;;;;;;15.73;5.85;;;;;;;13.53;85.02;100683.28;5054687;28;20027;-80
2021/07/30 05:28:25;;;;;;;18.02;6.07;;;;;;;13.74;85.08;100693.28;5077894;28;20429;-81
2021/07/30 05:30:51;;;;;;;14.40;5.30;;;;;;;13.89;83.73;100682.06;5075069;28;20036;-82
2021/07/30 05:33:17;;;;;;;10.02;5.45;;;;;;;14.06;82.91;100691.53;5076975;28;20532;-79
2021/07/30 05:35:42;;;;;;;13.93;6.03;;;;;;;14.21;82.16;100700.38;5073344;28;20031;-80
2021/07/30 05:38:08;;;;;;;13.95;5.32;;;;;;;14.25;82.84;100692.13;5095031;28;20080;-81
2021/07/30 05:40:33;;;;;;;15.57;5.88;;;;;;;14.40;81.08;100695.69;5076232;28;20038;-83
2021/07/30 05:42:59;;;;;;;10.68;5.43;;;;;;;14.56;80.27;100700.03;5068311;28;20489;-80
2021/07/30 05:45:24;;;;;;;11.27;5.30;;;;;;;14.71;80.43;100701.00;5074881;28;20030;-79
2021/07/30 05:47:50;;;;;;;12.48;5.10;;;;;;;14.68;81.32;100703.16;5075947;28;20031;-80
2021/07/30 05:50:16;;;;;;;14.68;5.72;;;;;;;14.86;80.32;100711.63;5070671;28;20039;-80
2021/07/30 05:52:41;;;;;;;16.08;5.63;;;;;;;15.01;80.11;100702.94;5077756;28;20516;-80
2021/07/30 05:55:08;;;;;;;13.32;5.38;;;;;;;15.07;79.59;100705.69;5063065;28;20032;-81
2021/07/30 05:57:36;;;;;;;12.63;5.47;;;;;;;15.19;79.49;100701.63;5074256;28;20482;-79
2021/07/30 06:00:04;;;;;;;11.48;5.63;;;;;;;15.32;79.29;100697.56;5070447;28;20031;-79
2021/07/30 06:02:35;;;;;;;12.95;5.20;;;;;;;15.38;78.67;100704.78;5074093;28;20070;-80
2021/07/30 06:05:01;;;;;;;14.02;5.43;;;;;;;15.47;79.08;100706.34;5051174;28;20467;-82
2021/07/30 06:07:26;;;;;;;17.50;5.75;;;;;;;15.63;78.55;100715.94;5058747;28;20097;-81
2021/07/30 06:09:52;;;;;;;11.88;5.63;;;;;;;15.70;78.18;100713.41;5067988;28;20036;-81
2021/07/30 06:12:17;;;;;;;12.48;5.88;;;;;;;15.82;76.81;100704.03;5095090;28;20110;-80
2021/07/30 06:14:44;;;;;;;17.15;5.88;;;;;;;15.93;78.36;100702.78;5058305;28;20122;-83
2021/07/30 06:17:13;;;;;;;14.52;5.30;;;;;;;16.09;76.02;100701.78;5078570;28;20035;-80
2021/07/30 06:19:39;;;;;;;17.83;4.95;;;;;;;16.11;77.07;100700.59;5076794;28;20583;-82
2021/07/30 06:22:04;;;;;;;13.25;5.45;;;;;;;16.18;76.53;100697.19;5061249;28;20043;-81
2021/07/30 06:24:30;;;;;;;15.75;5.25;;;;;;;16.30;75.88;100699.19;5077969;28;20103;-81
2021/07/30 06:26:55;;;;;;;16.05;5.40;;;;;;;16.43;76.56;100695.06;5077157;28;20485;-81
2021/07/30 06:29:21;;;;;;;18.27;6.13;;;;;;;16.62;75.23;100707.69;5067550;28;20043;-82
2021/07/30 06:31:46;;;;;;;10.93;4.78;;;;;;;16.62;75.59;100693.66;5091769;28;20623;-83
2021/07/30 06:34:12;;;;;;;15.88;5.85;;;;;;;16.76;75.85;100695.41;5085393;28;20039;-82
2021/07/30 06:36:38;;;;;;;13.45;5.07;;;;;;;16.90;74.75;100699.06;5076807;28;20036;-79
2021/07/30 06:39:04;;;;;;;14.55;5.18;;;;;;;17.02;73.25;100702.81;5070869;28;20024;-81
2021/07/30 06:41:30;;;;;;;11.32;4.80;;;;;;;17.05;74.49;100699.00;5078305;28;20081;-80
2021/07/30 06:43:56;;;;;;;11.07;4.85;;;;;;;17.23;73.58;100704.63;5057913;28;20032;-79
2021/07/30 06:46:21;;;;;;;14.05;5.28;;;;;;;17.26;71.82;100695.50;5075154;28;20030;-82
2021/07/30 06:48:47;;;;;;;19.38;5.35;;;;;;;17.32;70.65;100697.38;5059791;28;20101;-82
2021/07/30 06:51:13;;;;;;;12.52;4.93;;;;;;;17.40;71.97;100705.19;5079016;28;20039;-82
2021/07/30 06:53:40;;;;;;;17.52;5.15;;;;;;;17.60;71.49;100702.69;5096228;28;20435;-83
2021/07/30 06:56:13;;;;;;;15.07;4.85;;;;;;;17.75;72.25;100699.94;5098180;28;20083;-83
2021/07/30 06:58:40;;;;;;;20.17;5.45;;;;;;;17.82;70.19;100703.44;5065024;28;20031;-79
2021/07/30 07:01:06;;;;;;;17.92;5.20;;;;;;;17.91;69.81;100704.13;5082111;28;20038;-81
2021/07/30 07:03:32;;;;;;;16.45;5.13;;;;;;;18.06;70.14;100707.50;5092592;28;20098;-81
2021/07/30 07:05:58;;;;;;;12.95;4.47;;;;;;;18.17;68.45;100703.44;5071678;28;20123;-82
2021/07/30 07:08:23;;;;;;;20.40;5.03;;;;;;;18.35;69.35;100702.91;5061190;28;20032;-80
2021/07/30 07:10:49;;;;;;;15.25;5.22;;;;;;;18.44;68.57;100703.53;5078306;28;20088;-83
2021/07/30 07:13:16;;;;;;;10.52;4.60;;;;;;;18.54;67.89;100704.00;5063464;28;20043;-80
2021/07/30 07:15:42;;;;;;;12.23;4.45;;;;;;;18.74;68.08;100703.22;5080306;28;20485;-79
2021/07/30 07:18:08;;;;;;;14.57;4.80;;;;;;;18.81;66.44;100702.25;5070449;28;20118;-81
2021/07/30 07:20:34;;;;;;;13.50;5.00;;;;;;;18.96;65.95;100706.56;5068425;28;20035;-79
2021/07/30 07:23:00;;;;;;;12.77;4.57;;;;;;;19.05;65.80;100711.47;5079761;28;20097;-78
2021/07/30 07:25:25;;;;;;;16.20;4.55;;;;;;;19.25;65.68;100716.00;5095726;28;20123;-82
2021/07/30 07:27:51;;;;;;;14.18;4.60;;;;;;;19.35;64.66;100707.63;5098268;28;20038;-79
2021/07/30 07:30:16;;;;;;;14.57;4.88;;;;;;;19.39;64.33;100706.97;5079435;28;20142;-81
2021/07/30 07:32:42;;;;;;;17.25;4.60;;;;;;;19.49;64.98;100703.09;5078312;28;20450;-80
2021/07/30 07:35:08;;;;;;;10.63;4.50;;;;;;;19.61;63.10;100710.25;5078353;28;20560;-81
2021/07/30 07:37:33;;;;;;;13.77;4.50;;;;;;;19.73;63.61;100707.78;5072457;28;20401;-81
2021/07/30 07:39:59;;;;;;;11.63;4.38;;;;;;;19.87;62.55;100710.41;5054174;28;20066;-78
2021/07/30 07:42:25;;;;;;;12.88;4.55;;;;;;;19.95;62.84;100707.56;5049392;28;20040;-80
2021/07/30 07:44:51;;;;;;;10.43;4.32;;;;;;;20.02;62.66;100703.00;5068952;28;20031;-82
2021/07/30 07:47:17;;;;;;;15.60;4.20;;;;;;;20.10;61.86;100701.94;5079733;28;20043;-82
2021/07/30 07:49:42;;;;;;;10.15;4.07;;;;;;;20.11;59.75;100696.41;5099244;28;20073;-81
2021/07/30 07:52:08;;;;;;;11.75;4.20;;;;;;;20.16;62.05;100691.28;5065698;28;20031;-80
2021/07/30 07:54:34;;;;;;;13.90;4.57;;;;;;;20.28;63.38;100685.28;5104534;28;20070;-81
2021/07/30 07:57:06;;;;;;;9.45;4.38;;;;;;;20.35;61.82;100689.56;5045543;28;20032;-82
2021/07/30 07:59:35;;;;;;;12.15;3.90;;;;;;;20.50;61.28;100691.13;5093724;28;20040;-76
2021/07/30 08:02:04;;;;;;;12.88;4.07;;;;;;;20.55;60.11;100692.13;5101118;28;20051;-77
2021/07/30 08:04:30;;;;;;;9.25;3.60;;;;;;;20.57;59.84;100684.75;5094509;28;20035;-78
2021/07/30 08:06:56;;;;;;;13.95;4.20;;;;;;;20.70;60.60;100691.03;5080761;28;20067;-80
2021/07/30 08:09:21;;;;;;;9.25;3.45;;;;;;;20.78;58.43;100698.78;5083893;28;20031;-80
2021/07/30 08:11:47;;;;;;;10.40;3.72;;;;;;;20.94;58.15;100690.25;5075934;28;20044;-80
2021/07/30 08:14:12;;;;;;;10.93;3.80;;;;;;;21.02;58.95;100697.19;5077454;28;20077;-81
2021/07/30 08:16:38;;;;;;;13.48;3.85;;;;;;;21.13;57.11;100691.13;5055364;28;20516;-80
2021/07/30 08:19:04;;;;;;;8.90;3.22;;;;;;;21.20;57.06;100697.22;5054901;28;20081;-80
2021/07/30 08:21:30;;;;;;;6.28;3.00;;;;;;;21.33;56.66;100700.84;5068280;28;20047;-82
2021/07/30 08:23:56;;;;;;;14.88;3.35;;;;;;;21.44;55.74;100704.66;5094913;28;20035;-82
2021/07/30 08:26:22;;;;;;;10.93;3.58;;;;;;;21.55;56.93;100710.09;5060861;28;20055;-82
2021/07/30 08:28:47;;;;;;;9.18;3.50;;;;;;;21.54;54.62;100705.78;5056590;28;20039;-80
2021/07/30 08:31:13;;;;;;;11.52;3.22;;;;;;;21.67;55.90;100712.06;5057410;28;20493;-81
2021/07/30 08:33:38;;;;;;;9.18;3.35;;;;;;;21.72;53.93;100698.88;5075870;28;20102;-82
2021/07/30 08:36:07;;;;;;;9.85;3.35;;;;;;;21.88;54.10;100700.94;5057379;28;20032;-81
2021/07/30 08:38:33;;;;;;;9.43;3.55;;;;;;;22.02;54.81;100701.63;5060638;28;20027;-80
2021/07/30 08:40:59;;;;;;;9.05;3.45;;;;;;;22.10;55.17;100697.81;5094167;28;20447;-80
2021/07/30 08:43:24;;;;;;;7.53;2.70;;;;;;;22.03;52.16;100694.41;5094753;28;20080;-79
2021/07/30 08:45:51;;;;;;;8.13;2.95;;;;;;;22.08;51.88;100698.03;5077404;28;20055;-82
2021/07/30 08:48:17;;;;;;;9.18;3.17;;;;;;;22.11;51.07;100697.59;5076089;28;20519;-81
2021/07/30 08:50:43;;;;;;;7.68;3.25;;;;;;;22.25;51.65;100702.78;5056047;28;20096;-79
2021/07/30 08:53:09;;;;;;;8.18;3.15;;;;;;;22.36;51.30;100712.75;5041074;28;20032;-81
2021/07/30 08:55:35;;;;;;;7.68;3.10;;;;;;;22.52;50.37;100698.72;5084430;28;20043;-81
2021/07/30 08:58:00;;;;;;;7.00;2.83;;;;;;;22.46;50.05;100705.00;5056982;28;20028;-81
2021/07/30 09:00:26;;;;;;;17.33;2.88;;;;;;;22.62;50.84;100698.22;5084667;28;20042;-81
2021/07/30 09:02:56;;;;;;;12.30;3.50;;;;;;;22.66;50.29;100699.38;5073677;28;20032;-80
2021/07/30 09:05:25;;;;;;;7.32;2.83;;;;;;;22.80;49.72;100705.34;5076395;28;20031;-80
2021/07/30 09:07:51;;;;;;;9.88;3.05;;;;;;;22.94;49.09;100697.91;5066269;28;20035;-82
2021/07/30 09:10:29;;;;;;;8.95;2.97;;;;;;;23.04;49.71;100705.44;5086883;28;20043;-82
2021/07/30 09:13:19;;;;;;;6.13;2.60;;;;;;;22.77;49.59;100705.78;5074872;28;20093;-82
2021/07/30 09:15:48;;;;;;;11.27;2.60;;;;;;;22.74;48.05;100692.88;5058077;28;20108;-84
2021/07/30 09:18:44;;;;;;;6.15;2.20;;;;;;;22.73;49.08;100696.59;5061908;28;20119;-84
2021/07/30 09:21:21;;;;;;;7.00;2.20;;;;;;;22.66;48.29;100703.88;5085147;28;20054;-79
2021/07/30 09:24:04;;;;;;;4.32;2.00;;;;;;;22.52;48.37;100701.41;5054522;28;20123;-79
2021/07/30 09:26:53;;;;;;;4.80;2.40;;;;;;;22.51;49.11;100698.97;5071492;28;20220;-82
2021/07/30 09:29:27;;;;;;;6.85;2.30;;;;;;;22.82;47.41;100697.91;5074488;28;20074;-81
2021/07/30 09:31:58;;;;;;;8.57;2.15;;;;;;;23.06;47.64;100700.66;5075569;28;20035;-80
2021/07/30 09:34:38;;;;;;;6.65;2.35;;;;;;;22.97;46.41;100691.31;5107136;28;20100;-82
2021/07/30 09:37:09;;;;;;;7.43;2.08;;;;;;;22.97;49.44;100696.66;5091193;28;20039;-80
2021/07/30 09:39:35;;;;;;;9.25;2.22;;;;;;;22.88;46.94;100701.50;5055815;28;20141;-80
2021/07/30 09:42:12;;;;;;;9.95;2.20;;;;;;;23.31;46.51;100692.41;5065037;28;20058;-80
2021/07/30 09:44:44;;;;;;;7.60;2.10;;;;;;;23.67;44.24;100696.69;5079464;28;20851;-80
2021/07/30 09:47:12;;;;;;;8.38;2.00;;;;;;;23.81;46.20;100691.97;5073354;28;20127;-79
2021/07/30 09:49:46;;;;;;;5.13;1.90;;;;;;;24.03;43.62;100699.34;5058680;27;20027;-80
2021/07/30 09:52:26;;;;;;;4.65;1.60;;;;;;;23.99;43.00;100696.31;5091979;28;20458;-81
2021/07/30 09:54:59;;;;;;;6.35;2.00;;;;;;;23.68;44.88;100692.19;5058343;28;20478;-80
2021/07/30 09:57:29;;;;;;;8.23;2.35;;;;;;;23.69;44.20;100694.59;5063112;28;20127;-81
2021/07/30 10:00:09;;;;;;;4.72;1.77;;;;;;;23.87;44.24;100695.56;5084976;28;20034;-79
2021/07/30 10:02:36;;;;;;;11.23;2.20;;;;;;;24.25;43.08;100688.81;5088097;28;20385;-82
2021/07/30 10:05:04;;;;;;;4.72;1.70;;;;;;;24.41;41.93;100684.53;5073851;28;20483;-79
2021/07/30 10:07:32;;;;;;;5.85;1.95;;;;;;;24.42;41.91;100686.19;5079781;28;20169;-80
2021/07/30 10:10:08;;;;;;;6.97;2.22;;;;;;;24.07;42.77;100687.09;5067521;28;20035;-80
2021/07/30 10:12:37;;;;;;;5.95;1.73;;;;;;;24.12;42.70;100678.38;5062445;28;20031;-81
2021/07/30 10:15:05;;;;;;;7.90;1.73;;;;;;;24.44;43.59;100686.75;5074275;28;20039;-81
2021/07/30 10:17:34;;;;;;;4.68;1.88;;;;;;;24.85;41.36;100677.56;5049368;28;20055;-80
2021/07/30 10:20:11;;;;;;;4.43;1.63;;;;;;;24.89;39.73;100675.22;5074348;28;20032;-82
2021/07/30 10:22:39;;;;;;;9.45;1.80;;;;;;;24.99;40.42;100669.19;5056194;28;20035;-80
2021/07/30 10:25:05;;;;;;;6.35;1.65;;;;;;;25.25;41.08;100673.94;5056163;28;20042;-81
2021/07/30 10:27:32;;;;;;;4.47;1.83;;;;;;;25.23;39.50;100667.19;5062028;28;20504;-83
2021/07/30 10:30:07;;;;;;;3.97;1.90;;;;;;;25.17;41.07;100665.47;5089730;28;20800;-83
2021/07/30 10:32:49;;;;;;;11.73;2.00;;;;;;;25.28;40.36;100661.06;5105823;28;20031;-83
2021/07/30 10:35:17;;;;;;;7.68;2.10;;;;;;;25.38;40.23;100661.25;5062440;28;20503;-82
2021/07/30 10:37:43;;;;;;;3.90;1.58;;;;;;;25.25;39.25;100659.69;5077403;28;20040;-80
2021/07/30 10:40:23;;;;;;;6.00;1.65;;;;;;;25.06;39.22;100651.06;5113223;28;20031;-84
2021/07/30 10:43:02;;;;;;;4.43;1.85;;;;;;;25.06;40.47;100656.44;5085636;28;20036;-82
2021/07/30 10:45:29;;;;;;;4.55;1.88;;;;;;;25.31;39.46;100653.34;5058142;28;20020;-82
2021/07/30 10:48:13;;;;;;;2.22;1.60;;;;;;;25.19;39.11;100658.78;5059845;28;20141;-83
2021/07/30 10:50:56;;;;;;;7.38;2.00;;;;;;;25.31;38.55;100652.53;5094829;28;20027;-81
2021/07/30 10:53:31;;;;;;;8.07;2.00;;;;;;;25.20;39.50;100654.22;5074343;28;20095;-81
2021/07/30 10:55:58;;;;;;;5.30;2.20;;;;;;;25.18;39.68;100649.09;5069765;28;20040;-84
2021/07/30 10:58:45;;;;;;;5.80;1.70;;;;;;;25.06;40.11;100651.88;5098726;28;20493;-84
2021/07/30 11:01:22;;;;;;;4.60;1.70;;;;;;;24.97;39.98;100644.50;5081692;27;20027;-84
2021/07/30 11:03:54;;;;;;;4.75;1.92;;;;;;;24.85;39.59;100645.38;5096395;28;20039;-82
2021/07/30 11:06:24;;;;;;;5.28;1.80;;;;;;;24.71;38.61;100643.25;5078754;28;20431;-83
2021/07/30 11:08:58;;;;;;;7.00;1.70;;;;;;;24.29;39.73;100641.72;5080479;28;20543;-84
2021/07/30 11:11:39;;;;;;;5.35;1.75;;;;;;;23.78;44.22;100649.53;5077382;28;20046;-84
2021/07/30 11:14:07;;;;;;;5.72;1.88;;;;;;;23.59;40.85;100650.75;5047175;28;20043;-82
2021/07/30 11:16:33;;;;;;;7.93;2.00;;;;;;;23.58;42.19;100644.56;5064698;28;20027;-84
2021/07/30 11:19:03;;;;;;;5.82;2.00;;;;;;;23.80;42.79;100643.97;5080950;28;20031;-86
2021/07/30 11:21:30;;;;;;;14.48;2.33;;;;;;;24.26;42.27;100645.69;5077985;28;20028;-84
2021/07/30 11:23:57;;;;;;;5.95;2.30;;;;;;;24.37;41.57;100637.81;5077372;28;20134;-84
2021/07/30 11:26:23;;;;;;;5.65;1.92;;;;;;;24.47;40.13;100638.03;5060942;28;20696;-83